sensor_id;sensor_type;location;lat;lon;timestamp;temperature;humidity
70366;DHT22;57787;48.216;12.396;2023-07-29T00:00:49;16.90;88.40
70366;DHT22;57787;48.216;12.396;2023-07-29T00:03:17;16.90;88.50
70366;DHT22;57787;48.216;12.396;2023-07-29T00:05:44;16.90;88.30
70366;DHT22;57787;48.216;12.396;2023-07-29T00:08:12;17.00;88.20
70366;DHT22;57787;48.216;12.396;2023-07-29T00:10:39;17.00;88.10
70366;DHT22;57787;48.216;12.396;2023-07-29T00:13:07;17.00;88.30
70366;DHT22;57787;48.216;12.396;2023-07-29T00:15:34;17.10;88.30
70366;DHT22;57787;48.216;12.396;2023-07-29T00:18:02;17.10;88.20
70366;DHT22;57787;48.216;12.396;2023-07-29T00:20:29;17.20;88.10
70366;DHT22;57787;48.216;12.396;2023-07-29T00:22:56;17.20;87.90
70366;DHT22;57787;48.216;12.396;2023-07-29T00:25:27;17.30;87.90
70366;DHT22;57787;48.216;12.396;2023-07-29T00:27:59;17.30;87.60
70366;DHT22;57787;48.216;12.396;2023-07-29T00:30:26;17.30;87.50
70366;DHT22;57787;48.216;12.396;2023-07-29T00:32:54;17.40;87.30
70366;DHT22;57787;48.216;12.396;2023-07-29T00:35:21;17.40;87.20
70366;DHT22;57787;48.216;12.396;2023-07-29T00:37:48;17.40;87.30
70366;DHT22;57787;48.216;12.396;2023-07-29T00:40:20;17.40;87.20
70366;DHT22;57787;48.216;12.396;2023-07-29T00:42:48;17.40;87.40
70366;DHT22;57787;48.216;12.396;2023-07-29T00:45:15;17.40;87.30
70366;DHT22;57787;48.216;12.396;2023-07-29T00:47:42;17.40;87.30
70366;DHT22;57787;48.216;12.396;2023-07-29T00:50:12;17.40;87.30
70366;DHT22;57787;48.216;12.396;2023-07-29T00:52:39;17.40;87.30
70366;DHT22;57787;48.216;12.396;2023-07-29T00:55:09;17.40;87.30
70366;DHT22;57787;48.216;12.396;2023-07-29T00:57:37;17.40;87.30
70366;DHT22;57787;48.216;12.396;2023-07-29T01:00:04;17.40;87.20
70366;DHT22;57787;48.216;12.396;2023-07-29T01:02:32;17.40;87.20
70366;DHT22;57787;48.216;12.396;2023-07-29T01:05:01;17.40;87.20
70366;DHT22;57787;48.216;12.396;2023-07-29T01:10:10;17.40;87.40
70366;DHT22;57787;48.216;12.396;2023-07-29T01:12:49;17.30;87.50
70366;DHT22;57787;48.216;12.396;2023-07-29T01:15:53;17.30;87.60
70366;DHT22;57787;48.216;12.396;2023-07-29T01:18:28;17.30;87.70
70366;DHT22;57787;48.216;12.396;2023-07-29T01:21:02;17.30;87.60
70366;DHT22;57787;48.216;12.396;2023-07-29T01:23:34;17.30;87.70
70366;DHT22;57787;48.216;12.396;2023-07-29T01:26:08;17.20;87.80
70366;DHT22;57787;48.216;12.396;2023-07-29T01:28:35;17.20;87.70
70366;DHT22;57787;48.216;12.396;2023-07-29T01:31:07;17.20;87.70
70366;DHT22;57787;48.216;12.396;2023-07-29T01:33:45;17.20;87.90
70366;DHT22;57787;48.216;12.396;2023-07-29T01:36:20;17.20;87.80
70366;DHT22;57787;48.216;12.396;2023-07-29T01:38:51;17.20;87.80
70366;DHT22;57787;48.216;12.396;2023-07-29T01:41:19;17.20;87.70
70366;DHT22;57787;48.216;12.396;2023-07-29T01:43:47;17.10;87.70
70366;DHT22;57787;48.216;12.396;2023-07-29T01:46:14;17.10;87.60
70366;DHT22;57787;48.216;12.396;2023-07-29T01:48:43;17.00;87.60
70366;DHT22;57787;48.216;12.396;2023-07-29T01:51:12;17.00;87.50
70366;DHT22;57787;48.216;12.396;2023-07-29T01:53:39;17.00;87.30
70366;DHT22;57787;48.216;12.396;2023-07-29T01:56:06;16.90;87.60
70366;DHT22;57787;48.216;12.396;2023-07-29T01:58:33;16.80;87.50
70366;DHT22;57787;48.216;12.396;2023-07-29T02:01:00;16.70;87.60
70366;DHT22;57787;48.216;12.396;2023-07-29T02:03:27;16.70;87.90
70366;DHT22;57787;48.216;12.396;2023-07-29T02:05:54;16.60;87.70
70366;DHT22;57787;48.216;12.396;2023-07-29T02:08:22;16.50;87.80
70366;DHT22;57787;48.216;12.396;2023-07-29T02:10:49;16.30;88.10
70366;DHT22;57787;48.216;12.396;2023-07-29T02:13:16;16.30;88.10
70366;DHT22;57787;48.216;12.396;2023-07-29T02:15:43;16.20;88.20
70366;DHT22;57787;48.216;12.396;2023-07-29T02:18:10;16.10;88.50
70366;DHT22;57787;48.216;12.396;2023-07-29T02:20:39;16.00;88.70
70366;DHT22;57787;48.216;12.396;2023-07-29T02:23:06;15.90;88.80
70366;DHT22;57787;48.216;12.396;2023-07-29T02:25:35;15.80;88.80
70366;DHT22;57787;48.216;12.396;2023-07-29T02:28:03;15.70;88.90
70366;DHT22;57787;48.216;12.396;2023-07-29T02:30:31;15.60;89.10
70366;DHT22;57787;48.216;12.396;2023-07-29T02:32:58;15.60;89.20
70366;DHT22;57787;48.216;12.396;2023-07-29T02:35:26;15.60;89.30
70366;DHT22;57787;48.216;12.396;2023-07-29T02:37:55;15.40;89.30
70366;DHT22;57787;48.216;12.396;2023-07-29T02:40:22;15.40;89.40
70366;DHT22;57787;48.216;12.396;2023-07-29T02:42:49;15.30;89.80
70366;DHT22;57787;48.216;12.396;2023-07-29T02:45:19;15.30;89.80
70366;DHT22;57787;48.216;12.396;2023-07-29T02:47:47;15.30;89.70
70366;DHT22;57787;48.216;12.396;2023-07-29T02:50:15;15.30;89.90
70366;DHT22;57787;48.216;12.396;2023-07-29T02:52:43;15.30;89.90
70366;DHT22;57787;48.216;12.396;2023-07-29T02:55:13;15.20;90.00
70366;DHT22;57787;48.216;12.396;2023-07-29T02:57:40;15.30;90.30
70366;DHT22;57787;48.216;12.396;2023-07-29T03:00:07;15.40;90.50
70366;DHT22;57787;48.216;12.396;2023-07-29T03:02:34;15.50;90.40
70366;DHT22;57787;48.216;12.396;2023-07-29T03:05:01;15.60;90.30
70366;DHT22;57787;48.216;12.396;2023-07-29T03:07:31;15.70;90.20
70366;DHT22;57787;48.216;12.396;2023-07-29T03:09:58;15.70;90.20
70366;DHT22;57787;48.216;12.396;2023-07-29T03:12:26;15.80;90.30
70366;DHT22;57787;48.216;12.396;2023-07-29T03:14:56;15.80;90.10
70366;DHT22;57787;48.216;12.396;2023-07-29T03:17:22;15.80;90.10
70366;DHT22;57787;48.216;12.396;2023-07-29T03:19:50;15.80;90.00
70366;DHT22;57787;48.216;12.396;2023-07-29T03:22:17;15.80;89.80
70366;DHT22;57787;48.216;12.396;2023-07-29T03:24:45;15.70;89.70
70366;DHT22;57787;48.216;12.396;2023-07-29T03:27:12;15.70;89.80
70366;DHT22;57787;48.216;12.396;2023-07-29T03:29:44;15.60;89.80
70366;DHT22;57787;48.216;12.396;2023-07-29T03:32:11;15.60;89.90
70366;DHT22;57787;48.216;12.396;2023-07-29T03:34:39;15.50;90.00
70366;DHT22;57787;48.216;12.396;2023-07-29T03:37:08;15.50;90.10
70366;DHT22;57787;48.216;12.396;2023-07-29T03:39:35;15.40;90.20
70366;DHT22;57787;48.216;12.396;2023-07-29T03:42:02;15.50;90.60
70366;DHT22;57787;48.216;12.396;2023-07-29T03:44:29;15.50;90.60
70366;DHT22;57787;48.216;12.396;2023-07-29T03:47:00;15.60;90.60
70366;DHT22;57787;48.216;12.396;2023-07-29T03:49:27;15.50;90.60
70366;DHT22;57787;48.216;12.396;2023-07-29T03:51:54;15.60;90.50
70366;DHT22;57787;48.216;12.396;2023-07-29T03:54:22;15.60;90.40
70366;DHT22;57787;48.216;12.396;2023-07-29T03:56:49;15.70;90.30
70366;DHT22;57787;48.216;12.396;2023-07-29T03:59:17;15.70;90.10
70366;DHT22;57787;48.216;12.396;2023-07-29T04:01:44;15.80;90.00
70366;DHT22;57787;48.216;12.396;2023-07-29T04:04:13;15.80;89.80
70366;DHT22;57787;48.216;12.396;2023-07-29T04:06:40;15.80;89.60
70366;DHT22;57787;48.216;12.396;2023-07-29T04:09:08;15.80;89.30
70366;DHT22;57787;48.216;12.396;2023-07-29T04:11:36;15.90;89.30
70366;DHT22;57787;48.216;12.396;2023-07-29T04:14:03;16.00;89.30
70366;DHT22;57787;48.216;12.396;2023-07-29T04:16:32;16.20;89.10
70366;DHT22;57787;48.216;12.396;2023-07-29T04:18:59;16.40;88.70
70366;DHT22;57787;48.216;12.396;2023-07-29T04:21:29;16.70;88.50
70366;DHT22;57787;48.216;12.396;2023-07-29T04:23:56;16.90;88.00
70366;DHT22;57787;48.216;12.396;2023-07-29T04:26:24;17.10;87.40
70366;DHT22;57787;48.216;12.396;2023-07-29T04:28:51;17.40;86.40
70366;DHT22;57787;48.216;12.396;2023-07-29T04:31:19;17.60;85.80
70366;DHT22;57787;48.216;12.396;2023-07-29T04:33:48;17.70;85.50
70366;DHT22;57787;48.216;12.396;2023-07-29T04:36:16;17.80;85.50
70366;DHT22;57787;48.216;12.396;2023-07-29T04:38:45;17.90;85.30
70366;DHT22;57787;48.216;12.396;2023-07-29T04:41:12;18.10;84.60
70366;DHT22;57787;48.216;12.396;2023-07-29T04:43:39;18.30;84.00
70366;DHT22;57787;48.216;12.396;2023-07-29T04:46:08;18.40;83.30
70366;DHT22;57787;48.216;12.396;2023-07-29T04:48:35;18.40;82.80
70366;DHT22;57787;48.216;12.396;2023-07-29T04:51:04;18.30;83.00
70366;DHT22;57787;48.216;12.396;2023-07-29T04:53:31;18.30;83.40
70366;DHT22;57787;48.216;12.396;2023-07-29T04:55:59;18.30;83.30
70366;DHT22;57787;48.216;12.396;2023-07-29T04:58:25;18.80;82.00
70366;DHT22;57787;48.216;12.396;2023-07-29T05:00:55;18.80;81.70
70366;DHT22;57787;48.216;12.396;2023-07-29T05:03:23;18.70;82.00
70366;DHT22;57787;48.216;12.396;2023-07-29T05:05:50;18.50;82.40
70366;DHT22;57787;48.216;12.396;2023-07-29T05:08:18;18.50;82.80
70366;DHT22;57787;48.216;12.396;2023-07-29T05:10:48;18.50;82.90
70366;DHT22;57787;48.216;12.396;2023-07-29T05:13:19;18.50;83.20
70366;DHT22;57787;48.216;12.396;2023-07-29T05:15:50;18.60;82.70
70366;DHT22;57787;48.216;12.396;2023-07-29T05:18:17;18.70;82.60
70366;DHT22;57787;48.216;12.396;2023-07-29T05:20:47;18.70;82.50
70366;DHT22;57787;48.216;12.396;2023-07-29T05:23:14;18.70;82.70
70366;DHT22;57787;48.216;12.396;2023-07-29T05:25:41;18.80;82.60
70366;DHT22;57787;48.216;12.396;2023-07-29T05:28:08;18.80;82.40
70366;DHT22;57787;48.216;12.396;2023-07-29T05:30:37;18.80;82.20
70366;DHT22;57787;48.216;12.396;2023-07-29T05:33:06;18.80;82.10
70366;DHT22;57787;48.216;12.396;2023-07-29T05:35:37;18.90;81.90
70366;DHT22;57787;48.216;12.396;2023-07-29T05:38:05;19.10;81.90
70366;DHT22;57787;48.216;12.396;2023-07-29T05:40:35;19.30;81.10
70366;DHT22;57787;48.216;12.396;2023-07-29T05:43:02;19.90;80.20
70366;DHT22;57787;48.216;12.396;2023-07-29T05:45:29;22.50;71.10
70366;DHT22;57787;48.216;12.396;2023-07-29T05:47:57;23.00;67.60
70366;DHT22;57787;48.216;12.396;2023-07-29T05:50:24;22.80;68.30
70366;DHT22;57787;48.216;12.396;2023-07-29T05:52:51;22.60;68.70
70366;DHT22;57787;48.216;12.396;2023-07-29T05:55:19;22.40;69.10
70366;DHT22;57787;48.216;12.396;2023-07-29T05:57:47;22.60;69.00
70366;DHT22;57787;48.216;12.396;2023-07-29T06:00:15;22.90;67.80
70366;DHT22;57787;48.216;12.396;2023-07-29T06:02:42;24.10;65.00
70366;DHT22;57787;48.216;12.396;2023-07-29T06:05:09;28.10;54.10
70366;DHT22;57787;48.216;12.396;2023-07-29T06:07:36;31.80;45.80
70366;DHT22;57787;48.216;12.396;2023-07-29T06:10:05;34.10;39.80
70366;DHT22;57787;48.216;12.396;2023-07-29T06:12:32;33.60;39.40
70366;DHT22;57787;48.216;12.396;2023-07-29T06:14:59;33.20;41.10
70366;DHT22;57787;48.216;12.396;2023-07-29T06:17:27;32.30;42.70
70366;DHT22;57787;48.216;12.396;2023-07-29T06:19:54;30.60;44.60
70366;DHT22;57787;48.216;12.396;2023-07-29T06:22:22;28.90;48.60
70366;DHT22;57787;48.216;12.396;2023-07-29T06:24:49;27.50;51.60
70366;DHT22;57787;48.216;12.396;2023-07-29T06:27:15;26.40;55.00
70366;DHT22;57787;48.216;12.396;2023-07-29T06:29:42;25.60;57.50
70366;DHT22;57787;48.216;12.396;2023-07-29T06:32:11;24.90;60.30
70366;DHT22;57787;48.216;12.396;2023-07-29T06:34:38;24.40;61.40
70366;DHT22;57787;48.216;12.396;2023-07-29T06:37:05;24.10;63.00
70366;DHT22;57787;48.216;12.396;2023-07-29T06:39:33;23.90;63.70
70366;DHT22;57787;48.216;12.396;2023-07-29T06:42:00;24.00;64.10
70366;DHT22;57787;48.216;12.396;2023-07-29T06:44:28;24.10;64.30
70366;DHT22;57787;48.216;12.396;2023-07-29T06:46:57;24.20;63.80
70366;DHT22;57787;48.216;12.396;2023-07-29T06:49:24;24.30;62.70
70366;DHT22;57787;48.216;12.396;2023-07-29T06:51:51;24.40;61.40
70366;DHT22;57787;48.216;12.396;2023-07-29T06:54:23;24.40;62.40
70366;DHT22;57787;48.216;12.396;2023-07-29T06:56:52;24.30;63.30
70366;DHT22;57787;48.216;12.396;2023-07-29T06:59:19;24.10;63.20
70366;DHT22;57787;48.216;12.396;2023-07-29T07:01:46;23.80;64.40
70366;DHT22;57787;48.216;12.396;2023-07-29T07:04:13;23.40;65.30
70366;DHT22;57787;48.216;12.396;2023-07-29T07:06:41;23.00;66.90
70366;DHT22;57787;48.216;12.396;2023-07-29T07:09:09;22.70;68.20
70366;DHT22;57787;48.216;12.396;2023-07-29T07:11:38;22.30;69.30
70366;DHT22;57787;48.216;12.396;2023-07-29T07:14:05;22.20;69.60
70366;DHT22;57787;48.216;12.396;2023-07-29T07:16:32;22.10;69.40
70366;DHT22;57787;48.216;12.396;2023-07-29T07:19:00;22.10;70.20
70366;DHT22;57787;48.216;12.396;2023-07-29T07:21:27;22.20;70.00
70366;DHT22;57787;48.216;12.396;2023-07-29T07:23:54;22.40;69.30
70366;DHT22;57787;48.216;12.396;2023-07-29T07:26:21;22.70;69.00
70366;DHT22;57787;48.216;12.396;2023-07-29T07:28:47;23.00;68.30
70366;DHT22;57787;48.216;12.396;2023-07-29T07:31:16;23.20;66.90
70366;DHT22;57787;48.216;12.396;2023-07-29T07:33:48;23.30;66.00
70366;DHT22;57787;48.216;12.396;2023-07-29T07:36:14;23.50;66.40
70366;DHT22;57787;48.216;12.396;2023-07-29T07:38:42;23.80;66.40
70366;DHT22;57787;48.216;12.396;2023-07-29T07:41:09;23.90;65.10
70366;DHT22;57787;48.216;12.396;2023-07-29T07:43:36;23.70;64.60
70366;DHT22;57787;48.216;12.396;2023-07-29T07:46:03;23.40;64.70
70366;DHT22;57787;48.216;12.396;2023-07-29T07:48:30;22.90;65.90
70366;DHT22;57787;48.216;12.396;2023-07-29T07:50:57;22.60;66.60
70366;DHT22;57787;48.216;12.396;2023-07-29T07:53:23;22.30;68.10
70366;DHT22;57787;48.216;12.396;2023-07-29T07:55:52;21.80;69.40
70366;DHT22;57787;48.216;12.396;2023-07-29T07:58:19;21.50;70.70
70366;DHT22;57787;48.216;12.396;2023-07-29T08:00:46;21.30;71.50
70366;DHT22;57787;48.216;12.396;2023-07-29T08:03:13;21.20;72.20
70366;DHT22;57787;48.216;12.396;2023-07-29T08:05:41;21.00;73.50
70366;DHT22;57787;48.216;12.396;2023-07-29T08:08:09;20.80;74.30
70366;DHT22;57787;48.216;12.396;2023-07-29T08:10:36;20.70;75.60
70366;DHT22;57787;48.216;12.396;2023-07-29T08:13:05;20.60;77.10
70366;DHT22;57787;48.216;12.396;2023-07-29T08:15:33;20.70;77.30
70366;DHT22;57787;48.216;12.396;2023-07-29T08:18:02;20.80;77.80
70366;DHT22;57787;48.216;12.396;2023-07-29T08:20:29;20.90;77.50
70366;DHT22;57787;48.216;12.396;2023-07-29T08:22:56;21.00;78.20
70366;DHT22;57787;48.216;12.396;2023-07-29T08:25:23;21.00;78.10
70366;DHT22;57787;48.216;12.396;2023-07-29T08:27:51;21.00;77.70
70366;DHT22;57787;48.216;12.396;2023-07-29T08:30:20;21.20;77.50
70366;DHT22;57787;48.216;12.396;2023-07-29T08:32:50;21.30;77.10
70366;DHT22;57787;48.216;12.396;2023-07-29T08:35:24;21.30;77.30
70366;DHT22;57787;48.216;12.396;2023-07-29T08:37:54;21.40;77.00
70366;DHT22;57787;48.216;12.396;2023-07-29T08:40:23;21.40;76.60
70366;DHT22;57787;48.216;12.396;2023-07-29T08:42:53;21.50;77.00
70366;DHT22;57787;48.216;12.396;2023-07-29T08:45:23;21.50;76.80
70366;DHT22;57787;48.216;12.396;2023-07-29T08:47:51;21.50;76.70
70366;DHT22;57787;48.216;12.396;2023-07-29T08:50:26;21.70;76.60
70366;DHT22;57787;48.216;12.396;2023-07-29T08:52:53;21.80;76.10
70366;DHT22;57787;48.216;12.396;2023-07-29T08:55:24;21.90;75.70
70366;DHT22;57787;48.216;12.396;2023-07-29T08:57:56;22.10;75.00
70366;DHT22;57787;48.216;12.396;2023-07-29T09:00:27;22.20;74.30
70366;DHT22;57787;48.216;12.396;2023-07-29T09:02:57;22.20;73.70
70366;DHT22;57787;48.216;12.396;2023-07-29T09:05:34;22.20;73.50
70366;DHT22;57787;48.216;12.396;2023-07-29T09:08:02;22.20;74.30
70366;DHT22;57787;48.216;12.396;2023-07-29T09:10:36;22.10;74.40
70366;DHT22;57787;48.216;12.396;2023-07-29T09:13:09;22.20;74.90
70366;DHT22;57787;48.216;12.396;2023-07-29T09:15:46;22.20;74.70
70366;DHT22;57787;48.216;12.396;2023-07-29T09:18:19;22.30;74.50
70366;DHT22;57787;48.216;12.396;2023-07-29T09:20:47;22.60;74.00
70366;DHT22;57787;48.216;12.396;2023-07-29T09:23:16;22.90;73.00
70366;DHT22;57787;48.216;12.396;2023-07-29T09:25:43;23.20;72.40
70366;DHT22;57787;48.216;12.396;2023-07-29T09:28:13;23.50;71.60
70366;DHT22;57787;48.216;12.396;2023-07-29T09:30:41;23.80;71.20
70366;DHT22;57787;48.216;12.396;2023-07-29T09:33:10;24.00;69.00
70366;DHT22;57787;48.216;12.396;2023-07-29T09:35:38;24.10;69.60
70366;DHT22;57787;48.216;12.396;2023-07-29T09:38:08;24.30;69.60
70366;DHT22;57787;48.216;12.396;2023-07-29T09:40:39;24.50;68.80
70366;DHT22;57787;48.216;12.396;2023-07-29T09:43:09;24.70;67.60
70366;DHT22;57787;48.216;12.396;2023-07-29T09:45:44;24.70;67.60
70366;DHT22;57787;48.216;12.396;2023-07-29T09:48:12;25.00;67.90
70366;DHT22;57787;48.216;12.396;2023-07-29T09:50:40;25.30;65.70
70366;DHT22;57787;48.216;12.396;2023-07-29T09:53:08;25.70;64.70
70366;DHT22;57787;48.216;12.396;2023-07-29T09:55:35;25.90;63.80
70366;DHT22;57787;48.216;12.396;2023-07-29T09:58:02;26.00;65.10
70366;DHT22;57787;48.216;12.396;2023-07-29T10:00:35;26.20;63.00
70366;DHT22;57787;48.216;12.396;2023-07-29T10:03:02;26.30;64.20
70366;DHT22;57787;48.216;12.396;2023-07-29T10:05:30;26.50;63.80
70366;DHT22;57787;48.216;12.396;2023-07-29T10:07:57;26.80;62.70
70366;DHT22;57787;48.216;12.396;2023-07-29T10:10:24;27.20;61.10
70366;DHT22;57787;48.216;12.396;2023-07-29T10:12:52;27.60;61.10
70366;DHT22;57787;48.216;12.396;2023-07-29T10:15:31;27.80;58.70
70366;DHT22;57787;48.216;12.396;2023-07-29T10:17:59;27.80;59.20
70366;DHT22;57787;48.216;12.396;2023-07-29T10:20:30;28.00;58.60
70366;DHT22;57787;48.216;12.396;2023-07-29T10:22:59;28.00;57.00
70366;DHT22;57787;48.216;12.396;2023-07-29T10:25:32;28.00;56.70
70366;DHT22;57787;48.216;12.396;2023-07-29T10:28:04;28.30;57.00
70366;DHT22;57787;48.216;12.396;2023-07-29T10:30:32;28.40;54.30
70366;DHT22;57787;48.216;12.396;2023-07-29T10:33:03;28.40;55.90
70366;DHT22;57787;48.216;12.396;2023-07-29T10:35:36;28.70;54.20
70366;DHT22;57787;48.216;12.396;2023-07-29T10:38:04;29.10;54.00
70366;DHT22;57787;48.216;12.396;2023-07-29T10:40:46;29.20;53.80
70366;DHT22;57787;48.216;12.396;2023-07-29T10:43:18;29.30;55.10
70366;DHT22;57787;48.216;12.396;2023-07-29T10:45:45;29.60;50.50
70366;DHT22;57787;48.216;12.396;2023-07-29T10:48:13;29.50;52.30
70366;DHT22;57787;48.216;12.396;2023-07-29T10:53:45;29.40;51.20
70366;DHT22;57787;48.216;12.396;2023-07-29T10:56:12;29.30;51.70
70366;DHT22;57787;48.216;12.396;2023-07-29T10:58:42;29.30;50.80
70366;DHT22;57787;48.216;12.396;2023-07-29T11:01:20;29.10;52.10
70366;DHT22;57787;48.216;12.396;2023-07-29T11:15:00;30.20;49.10
70366;DHT22;57787;48.216;12.396;2023-07-29T11:17:30;30.00;47.70
70366;DHT22;57787;48.216;12.396;2023-07-29T11:20:00;29.80;48.80
70366;DHT22;57787;48.216;12.396;2023-07-29T11:22:29;30.00;48.70
70366;DHT22;57787;48.216;12.396;2023-07-29T11:25:00;30.20;48.80
70366;DHT22;57787;48.216;12.396;2023-07-29T11:27:27;30.30;48.30
70366;DHT22;57787;48.216;12.396;2023-07-29T11:29:57;30.30;47.60
70366;DHT22;57787;48.216;12.396;2023-07-29T11:32:27;30.50;49.90
70366;DHT22;57787;48.216;12.396;2023-07-29T11:34:55;30.60;48.60
70366;DHT22;57787;48.216;12.396;2023-07-29T11:37:23;30.40;48.10
70366;DHT22;57787;48.216;12.396;2023-07-29T11:39:53;30.80;48.70
70366;DHT22;57787;48.216;12.396;2023-07-29T11:42:30;31.30;48.00
70366;DHT22;57787;48.216;12.396;2023-07-29T11:44:58;31.30;46.80
70366;DHT22;57787;48.216;12.396;2023-07-29T11:47:27;30.60;47.10
70366;DHT22;57787;48.216;12.396;2023-07-29T11:49:59;28.60;45.00
70366;DHT22;57787;48.216;12.396;2023-07-29T11:52:31;26.60;47.40
70366;DHT22;57787;48.216;12.396;2023-07-29T11:55:00;25.00;54.20
70366;DHT22;57787;48.216;12.396;2023-07-29T11:57:27;22.80;64.40
70366;DHT22;57787;48.216;12.396;2023-07-29T11:59:54;21.20;72.20
70366;DHT22;57787;48.216;12.396;2023-07-29T12:02:21;20.50;75.30
70366;DHT22;57787;48.216;12.396;2023-07-29T12:04:49;20.00;79.00
70366;DHT22;57787;48.216;12.396;2023-07-29T12:07:17;19.80;79.10
70366;DHT22;57787;48.216;12.396;2023-07-29T12:09:50;19.70;79.50
70366;DHT22;57787;48.216;12.396;2023-07-29T12:12:24;19.40;80.30
70366;DHT22;57787;48.216;12.396;2023-07-29T12:14:54;19.30;81.30
70366;DHT22;57787;48.216;12.396;2023-07-29T12:17:20;19.30;80.60
70366;DHT22;57787;48.216;12.396;2023-07-29T12:19:53;19.40;81.80
70366;DHT22;57787;48.216;12.396;2023-07-29T12:22:20;19.80;80.80
70366;DHT22;57787;48.216;12.396;2023-07-29T12:24:47;20.30;80.40
70366;DHT22;57787;48.216;12.396;2023-07-29T12:27:17;20.80;79.30
70366;DHT22;57787;48.216;12.396;2023-07-29T12:29:45;21.00;79.60
70366;DHT22;57787;48.216;12.396;2023-07-29T12:32:18;21.20;78.00
70366;DHT22;57787;48.216;12.396;2023-07-29T12:34:48;21.50;76.70
70366;DHT22;57787;48.216;12.396;2023-07-29T12:37:15;21.70;79.40
70366;DHT22;57787;48.216;12.396;2023-07-29T12:39:50;22.30;79.40
70366;DHT22;57787;48.216;12.396;2023-07-29T12:42:18;23.00;76.50
70366;DHT22;57787;48.216;12.396;2023-07-29T12:44:48;23.20;74.40
70366;DHT22;57787;48.216;12.396;2023-07-29T12:47:15;23.30;74.30
70366;DHT22;57787;48.216;12.396;2023-07-29T12:49:43;23.60;74.40
70366;DHT22;57787;48.216;12.396;2023-07-29T12:52:11;23.70;71.90
70366;DHT22;57787;48.216;12.396;2023-07-29T12:54:40;23.90;74.00
70366;DHT22;57787;48.216;12.396;2023-07-29T12:57:06;24.00;71.50
70366;DHT22;57787;48.216;12.396;2023-07-29T12:59:38;24.10;70.20
70366;DHT22;57787;48.216;12.396;2023-07-29T13:02:05;24.30;69.20
70366;DHT22;57787;48.216;12.396;2023-07-29T13:04:33;24.20;67.00
70366;DHT22;57787;48.216;12.396;2023-07-29T13:07:00;24.00;65.00
70366;DHT22;57787;48.216;12.396;2023-07-29T13:09:27;23.80;69.20
70366;DHT22;57787;48.216;12.396;2023-07-29T13:11:54;23.80;68.60
70366;DHT22;57787;48.216;12.396;2023-07-29T13:14:21;23.90;69.00
70366;DHT22;57787;48.216;12.396;2023-07-29T13:16:48;23.80;70.50
70366;DHT22;57787;48.216;12.396;2023-07-29T13:19:15;23.70;69.50
70366;DHT22;57787;48.216;12.396;2023-07-29T13:21:41;23.50;71.80
70366;DHT22;57787;48.216;12.396;2023-07-29T13:24:09;23.30;73.20
70366;DHT22;57787;48.216;12.396;2023-07-29T13:26:37;23.20;74.80
70366;DHT22;57787;48.216;12.396;2023-07-29T13:29:05;23.00;75.60
70366;DHT22;57787;48.216;12.396;2023-07-29T13:31:35;22.90;76.50
70366;DHT22;57787;48.216;12.396;2023-07-29T13:34:03;22.90;77.00
70366;DHT22;57787;48.216;12.396;2023-07-29T13:36:30;23.00;77.00
70366;DHT22;57787;48.216;12.396;2023-07-29T13:38:57;23.00;76.10
70366;DHT22;57787;48.216;12.396;2023-07-29T13:41:26;23.00;76.10
70366;DHT22;57787;48.216;12.396;2023-07-29T13:43:53;23.00;76.60
70366;DHT22;57787;48.216;12.396;2023-07-29T13:46:20;23.00;77.10
70366;DHT22;57787;48.216;12.396;2023-07-29T13:48:50;23.00;77.20
70366;DHT22;57787;48.216;12.396;2023-07-29T13:51:16;22.90;77.70
70366;DHT22;57787;48.216;12.396;2023-07-29T13:53:43;22.80;78.20
70366;DHT22;57787;48.216;12.396;2023-07-29T13:56:11;22.80;78.30
70366;DHT22;57787;48.216;12.396;2023-07-29T13:58:37;22.70;78.80
70366;DHT22;57787;48.216;12.396;2023-07-29T14:01:04;22.80;79.10
70366;DHT22;57787;48.216;12.396;2023-07-29T14:03:31;22.80;79.00
70366;DHT22;57787;48.216;12.396;2023-07-29T14:05:58;22.90;78.50
70366;DHT22;57787;48.216;12.396;2023-07-29T14:08:25;23.00;78.30
70366;DHT22;57787;48.216;12.396;2023-07-29T14:10:52;23.20;78.30
70366;DHT22;57787;48.216;12.396;2023-07-29T14:13:18;23.30;76.50
70366;DHT22;57787;48.216;12.396;2023-07-29T14:15:45;23.50;76.80
70366;DHT22;57787;48.216;12.396;2023-07-29T14:18:12;23.60;76.10
70366;DHT22;57787;48.216;12.396;2023-07-29T14:20:40;23.80;76.70
70366;DHT22;57787;48.216;12.396;2023-07-29T14:23:07;24.00;75.20
70366;DHT22;57787;48.216;12.396;2023-07-29T14:25:33;24.30;74.50
70366;DHT22;57787;48.216;12.396;2023-07-29T14:28:00;24.50;74.50
70366;DHT22;57787;48.216;12.396;2023-07-29T14:30:27;24.60;72.90
70366;DHT22;57787;48.216;12.396;2023-07-29T14:32:54;24.60;72.30
70366;DHT22;57787;48.216;12.396;2023-07-29T14:35:21;24.70;72.40
70366;DHT22;57787;48.216;12.396;2023-07-29T14:37:50;24.80;71.20
70366;DHT22;57787;48.216;12.396;2023-07-29T14:40:20;24.70;72.20
70366;DHT22;57787;48.216;12.396;2023-07-29T14:42:47;24.70;71.30
70366;DHT22;57787;48.216;12.396;2023-07-29T14:45:14;24.60;72.60
70366;DHT22;57787;48.216;12.396;2023-07-29T14:47:41;24.60;72.60
70366;DHT22;57787;48.216;12.396;2023-07-29T14:50:11;24.60;73.10
70366;DHT22;57787;48.216;12.396;2023-07-29T14:52:38;24.60;72.20
70366;DHT22;57787;48.216;12.396;2023-07-29T14:55:05;24.70;72.30
70366;DHT22;57787;48.216;12.396;2023-07-29T14:57:32;24.70;71.50
70366;DHT22;57787;48.216;12.396;2023-07-29T14:59:59;24.50;70.70
70366;DHT22;57787;48.216;12.396;2023-07-29T15:02:26;24.60;72.90
70366;DHT22;57787;48.216;12.396;2023-07-29T15:04:53;24.50;73.20
70366;DHT22;57787;48.216;12.396;2023-07-29T15:07:21;24.40;73.50
70366;DHT22;57787;48.216;12.396;2023-07-29T15:09:48;24.30;73.40
70366;DHT22;57787;48.216;12.396;2023-07-29T15:12:15;24.30;74.10
70366;DHT22;57787;48.216;12.396;2023-07-29T15:14:41;24.10;74.40
70366;DHT22;57787;48.216;12.396;2023-07-29T15:17:08;24.10;75.20
70366;DHT22;57787;48.216;12.396;2023-07-29T15:19:35;24.00;75.60
70366;DHT22;57787;48.216;12.396;2023-07-29T15:22:02;23.90;76.00
70366;DHT22;57787;48.216;12.396;2023-07-29T15:24:31;23.80;76.50
70366;DHT22;57787;48.216;12.396;2023-07-29T15:26:58;23.70;77.00
70366;DHT22;57787;48.216;12.396;2023-07-29T15:29:24;23.60;77.60
70366;DHT22;57787;48.216;12.396;2023-07-29T15:31:51;23.60;77.80
70366;DHT22;57787;48.216;12.396;2023-07-29T15:34:19;23.50;78.20
70366;DHT22;57787;48.216;12.396;2023-07-29T15:36:45;23.40;78.50
70366;DHT22;57787;48.216;12.396;2023-07-29T15:39:13;23.30;79.20